Burney, CA (96013)

7:24 AM PDT on August 23, 2014 (GMT -0700)
Black Ranch at Vedder | Change Station
CLOSE
Current Station
Personal Weather Station
Location: Burney, CA
Elevation: 3137 ft
Nearby Weather Stations

Elev 3137 ft 40.93 °N, 121.66 °W | Updated 1 second ago

Clear
Clear
44.7 °F
Feels Like 45 °F
N
0.0
Wind Variable Wind from West
Gusts 0.0 mph

Today
High -- | Low -- °F
--% Chance of Precip.
Yesterday
High -- | Low -- °F
Precip. -- in
6:24 AM 7:53 PM
Waning Crescent, 4% visible
Pressure 30.09 in
Visibility 10.0 miles
Clouds Clear
Windchill 45 °F
Dew Point 40 °F
Humidity 84%
Rainfall 0.00 in
Snow Depth Not available.
UV 0.0 out of 12
Pollen 8.40 out of 12
Air Quality Not available.
Flu Activity Not available.
METAR KMHS 231356Z AUTO 00000KT 10SM CLR 08/04 A3010 RMK AO2 SLP190 T00830039

More Conditions Fewer Conditions

Pressure 30.09 in
Visibility 10.0 miles
Clouds Clear
Windchill 45 °F
Dew Point 40 °F
Humidity 84%
Rainfall 0.00 in
Snow Depth Not available.
UV 0.0 out of 12
Pollen 8.40 out of 12
Air Quality Not available.
Flu Activity Not available.
METAR KMHS 231356Z AUTO 00000KT 10SM CLR 08/04 A3010 RMK AO2 SLP190 T00830039

More Conditions Fewer Conditions

10-Day Weather Forecast

Almanac

Astronomy

Aug. 23, 2014 Rise Set
Actual Time 6:24 AM PDT 7:53 PM PDT
Civil Twilight 5:55 AM PDT 8:21 PM PDT
Nautical Twilight 5:21 AM PDT 8:56 PM PDT
Astronomical Twilight 4:44 AM PDT 9:32 PM PDT
Moon 4:45 AM PDT 6:40 PM PDT
Length of Visible Light 14h 26m
Length of Day
13h 28m
Tomorrow will be 2m 31s shorter.
Waning Crescent, 4% of the Moon is Illuminated
Today
Waning Crescent
Aug 25
New
Sep 2
First Quarter
Sep 8
Full
Sep 15
Last Quarter

Today's Extremes

State Highs State Lows

Community

WunderPhotos

Upload Photos

1,746,465 photos uploaded!

WunderBlogs® & News

By Dr. Jeff Masters
Director of Meteorology, Weather Underground
By Kari Strenfel
Meteorologist, Weather Underground
By Christopher C. Burt
Weather Historian, Weather Underground
August 23, 2014
August 23, 2014
August 23, 2014

Nearby

Snow Depth

Station Depth Elevation
Adin Mountain 0 in 6200 ft
Cedar Pass 1 in 7100 ft
Independence Creek 0 in 6500 ft
Independence Camp 0 in 7000 ft
Independence Lake 0 in 8450 ft

Earthquake Activity

City Distance Mag. Time & Date
No recent earthquake activity has been reported nearby.
Minimum magnitude displayed is 2.5.

Coastal Water Temperatures

Place Temperature
No Stations Reporting

Nearby Weather Stations